Wichita, KS (67209)

6:19 AM CST on December 20, 2014 (GMT -0600)
Near the airport | Change Station
CLOSE
Current Station
Personal Weather Station
Location: Wichita, KS
Elevation: 1348 ft
Nearby Weather Stations

Elev 1348 ft 37.65 °N, 97.44 °W | Updated 4 minutes ago

Clear
Clear
32.8 °F
Feels Like 33 °F
N
2.0
Wind Variable Wind from South
Gusts 5.0 mph

Today
High -- | Low -- °F
--% Chance of Precip.
Yesterday
High -- | Low -- °F
Precip. -- in
7:40 AM 5:14 PM
Waning Crescent, 3% visible
Pressure 30.18 in
Visibility 4.0 miles
Clouds Clear
Windchill 33 °F
Dew Point 32 °F
Humidity 97%
Rainfall 0.00 in
Snow Depth Not available.
UV 0 out of 12
Pollen .10 out of 12
Air Quality Not available.
Flu Activity Not available.
METAR KICT 201153Z 19008KT 4SM BR CLR 01/M01 A3015 RMK AO2 SLP220 T00061006 10033 20006 55001

More Conditions Fewer Conditions

Pressure 30.18 in
Visibility 4.0 miles
Clouds Clear
Windchill 33 °F
Dew Point 32 °F
Humidity 97%
Rainfall 0.00 in
Snow Depth Not available.
UV 0 out of 12
Pollen .10 out of 12
Air Quality Not available.
Flu Activity Not available.
METAR KICT 201153Z 19008KT 4SM BR CLR 01/M01 A3015 RMK AO2 SLP220 T00061006 10033 20006 55001

More Conditions Fewer Conditions

10-Day Weather Forecast

Almanac

Astronomy

Dec. 20, 2014 Rise Set
Actual Time
Civil Twilight
Nautical Twilight
Astronomical Twilight
Moon
Length of Visible Light
Length of Day
Tomorrow will be .
, % of the Moon is Illuminated

Today's Extremes

State Highs State Lows

Community

WunderPhotos

Upload Photos

1,779,162 photos uploaded!

WunderBlogs® & News

Nearby

Air Quality

  Air Quality AQ Index Pollutant
Not available.

Snow Depth

Station Depth Elevation

Earthquake Activity

City Distance Mag. Time & Date
Minimum magnitude displayed is 2.5.

Coastal Water Temperatures

Place Temperature

Nearby Weather Stations